Time;durP1;ratioP1;P1;durP2;ratioP2;P2;SDS_P1;SDS_P2;PMS_P1;PMS_P2;Temp;Humidity;BMP_temperature;BMP_pressure;BME280_temperature;BME280_humidity;BME280_pressure;Samples;Min_cycle;Max_cycle;Signal;HPM_P1;HPM_P2
2023/09/17 00:00:37;;;;;;;22.40;20.17;;;15.60;99.90;;;;;;5065089;28;20082;-53
2023/09/17 00:03:03;;;;;;;23.48;20.33;;;15.60;99.90;;;;;;5062112;28;20049;-55
2023/09/17 00:05:32;;;;;;;20.60;18.20;;;15.60;99.90;;;;;;5062352;28;20101;-55
2023/09/17 00:07:57;;;;;;;20.40;18.27;;;15.60;99.90;;;;;;5061456;28;20044;-56
2023/09/17 00:10:23;;;;;;;21.95;19.52;;;15.50;99.90;;;;;;5063885;28;20611;-55
2023/09/17 00:12:53;;;;;;;21.65;19.48;;;15.50;99.90;;;;;;5063626;28;20116;-55
2023/09/17 00:15:20;;;;;;;20.42;18.27;;;15.40;99.90;;;;;;5064104;28;20074;-56
2023/09/17 00:17:46;;;;;;;21.65;18.77;;;15.40;99.90;;;;;;5059306;28;20044;-55
2023/09/17 00:20:12;;;;;;;22.00;19.75;;;15.40;99.90;;;;;;5064250;28;20041;-55
2023/09/17 00:22:39;;;;;;;20.20;17.55;;;15.40;99.90;;;;;;5063327;28;20460;-55
2023/09/17 00:25:05;;;;;;;22.92;20.10;;;15.30;99.90;;;;;;5062536;28;20043;-53
2023/09/17 00:27:32;;;;;;;21.58;19.35;;;15.30;99.90;;;;;;5063197;28;20036;-52
2023/09/17 00:29:57;;;;;;;21.85;19.50;;;15.30;99.90;;;;;;5062046;28;20067;-53
2023/09/17 00:32:23;;;;;;;20.63;18.63;;;15.30;99.90;;;;;;5062742;28;20412;-55
2023/09/17 00:34:49;;;;;;;18.45;16.55;;;15.30;99.90;;;;;;5044466;28;20032;-55
2023/09/17 00:37:14;;;;;;;20.40;18.25;;;15.30;99.90;;;;;;5047442;28;20068;-52
2023/09/17 00:39:40;;;;;;;21.02;18.98;;;15.20;99.90;;;;;;5063791;28;20094;-55
2023/09/17 00:42:06;;;;;;;22.15;19.95;;;15.20;99.90;;;;;;5063040;28;20040;-55
2023/09/17 00:44:32;;;;;;;19.90;18.00;;;15.20;99.90;;;;;;5060871;28;20616;-55
2023/09/17 00:47:02;;;;;;;21.75;19.52;;;15.10;99.90;;;;;;5064543;28;20507;-53
2023/09/17 00:49:28;;;;;;;21.20;18.90;;;15.20;99.90;;;;;;5062378;28;20144;-55
2023/09/17 00:51:54;;;;;;;20.88;18.77;;;15.20;99.90;;;;;;5042855;28;20037;-56
2023/09/17 00:54:23;;;;;;;20.92;18.83;;;15.20;99.90;;;;;;5063746;28;20507;-56
2023/09/17 00:56:51;;;;;;;23.20;20.88;;;15.20;99.90;;;;;;5047963;28;20495;-54
2023/09/17 00:59:17;;;;;;;22.02;19.65;;;15.20;99.90;;;;;;5059931;28;20079;-55
2023/09/17 01:01:44;;;;;;;23.15;20.60;;;15.20;99.90;;;;;;5064719;28;20095;-53
2023/09/17 01:04:12;;;;;;;19.10;17.05;;;15.20;99.90;;;;;;5061431;28;20044;-56
2023/09/17 01:06:40;;;;;;;23.83;21.33;;;15.20;99.90;;;;;;5060933;28;20107;-56
2023/09/17 01:09:09;;;;;;;21.45;19.35;;;15.10;99.90;;;;;;5059530;28;20036;-55
2023/09/17 01:11:38;;;;;;;19.58;17.50;;;15.10;99.90;;;;;;5062646;28;20451;-55
2023/09/17 01:14:13;;;;;;;24.95;20.40;;;15.10;99.90;;;;;;5062043;28;20040;-57
2023/09/17 01:16:47;;;;;;;17.25;15.52;;;15.20;99.90;;;;;;5062723;28;20036;-57
2023/09/17 01:19:20;;;;;;;20.48;18.30;;;15.30;99.90;;;;;;5057802;28;20037;-52
2023/09/17 01:22:03;;;;;;;;;;;15.30;99.90;;;;;;5063262;28;20040;-54
2023/09/17 01:24:59;;;;;;;24.75;20.15;;;15.30;99.90;;;;;;5062492;28;19916;-54
2023/09/17 01:27:25;;;;;;;24.45;21.85;;;15.30;99.90;;;;;;5060171;28;20052;-54
2023/09/17 01:29:53;;;;;;;25.92;23.20;;;15.30;99.90;;;;;;5050346;28;20551;-56
2023/09/17 01:32:20;;;;;;;32.70;27.67;;;15.30;99.90;;;;;;5066362;28;20045;-57
2023/09/17 01:34:49;;;;;;;25.60;22.92;;;15.40;99.90;;;;;;5065384;28;20036;-55
2023/09/17 01:37:24;;;;;;;22.23;19.88;;;15.40;99.90;;;;;;5066423;28;20138;-53
2023/09/17 01:39:57;;;;;;;28.98;26.00;;;15.40;99.90;;;;;;5051514;28;20052;-53
2023/09/17 01:42:24;;;;;;;27.50;24.77;;;15.40;99.90;;;;;;5066298;28;20540;-55
2023/09/17 01:44:51;;;;;;;22.77;19.80;;;15.30;99.90;;;;;;5064055;28;20040;-54
2023/09/17 01:47:19;;;;;;;32.17;29.02;;;15.30;99.90;;;;;;5063171;28;20105;-54
2023/09/17 01:49:46;;;;;;;22.95;20.48;;;15.30;99.90;;;;;;5047106;28;20535;-56
2023/09/17 01:52:12;;;;;;;25.27;22.35;;;15.40;99.90;;;;;;5065238;28;20090;-55
2023/09/17 01:54:38;;;;;;;28.45;25.17;;;15.40;99.90;;;;;;5046064;28;20135;-57
2023/09/17 01:57:04;;;;;;;23.38;20.58;;;15.40;99.90;;;;;;5065887;28;20124;-56
2023/09/17 01:59:30;;;;;;;25.60;22.17;;;15.50;99.90;;;;;;5065065;28;20697;-56
2023/09/17 02:01:56;;;;;;;39.53;35.22;;;15.50;99.90;;;;;;5030771;28;20138;-57
2023/09/17 02:04:22;;;;;;;26.17;23.25;;;15.60;99.90;;;;;;5065130;28;20593;-56
2023/09/17 02:06:53;;;;;;;29.10;26.20;;;15.70;99.90;;;;;;5063878;28;20122;-55
2023/09/17 02:09:19;;;;;;;39.67;35.47;;;15.70;99.90;;;;;;5061210;28;20049;-55
2023/09/17 02:11:45;;;;;;;28.50;25.65;;;15.80;99.90;;;;;;5064286;28;20045;-53
2023/09/17 02:14:10;;;;;;;34.67;30.58;;;15.80;99.90;;;;;;5063971;28;20098;-55
2023/09/17 02:16:37;;;;;;;29.13;26.33;;;15.90;99.90;;;;;;5046806;28;20124;-58
2023/09/17 02:19:03;;;;;;;34.63;30.40;;;15.90;99.90;;;;;;5063098;28;20082;-54
2023/09/17 02:21:29;;;;;;;41.17;36.97;;;15.90;99.90;;;;;;5050265;28;20041;-54
2023/09/17 02:23:55;;;;;;;37.33;33.25;;;16.00;99.90;;;;;;5066145;28;20036;-58
2023/09/17 02:26:21;;;;;;;37.22;33.22;;;16.00;99.90;;;;;;5059155;28;20131;-56
2023/09/17 02:28:47;;;;;;;36.90;33.13;;;16.00;99.90;;;;;;5065360;28;20040;-56
2023/09/17 02:31:13;;;;;;;38.10;33.00;;;16.00;99.90;;;;;;5048444;28;20102;-56
2023/09/17 02:33:40;;;;;;;39.92;35.42;;;16.00;99.90;;;;;;5064182;28;20044;-55
2023/09/17 02:36:06;;;;;;;30.00;26.85;;;16.10;99.90;;;;;;5049567;28;20549;-54
2023/09/17 02:38:32;;;;;;;28.88;25.77;;;16.10;99.90;;;;;;5063748;28;20044;-57
2023/09/17 02:40:57;;;;;;;32.60;28.60;;;16.10;99.90;;;;;;5049052;28;20049;-56
2023/09/17 02:43:23;;;;;;;36.30;32.50;;;16.10;99.90;;;;;;5065102;28;20635;-55
2023/09/17 02:45:49;;;;;;;38.72;34.83;;;16.20;99.90;;;;;;5065533;28;20113;-55
2023/09/17 02:48:15;;;;;;;28.02;25.23;;;16.20;99.90;;;;;;5062605;28;20037;-54
2023/09/17 02:50:41;;;;;;;24.55;22.10;;;16.20;99.90;;;;;;5046568;28;20075;-55
2023/09/17 02:53:07;;;;;;;37.80;33.97;;;16.20;99.90;;;;;;5066109;28;20094;-56
2023/09/17 02:55:36;;;;;;;41.00;36.58;;;16.30;99.90;;;;;;5049558;28;20036;-56
2023/09/17 02:58:02;;;;;;;38.33;34.33;;;16.30;99.90;;;;;;5062755;28;20037;-54
2023/09/17 03:00:34;;;;;;;40.08;35.75;;;16.30;99.90;;;;;;5065129;28;20102;-56
2023/09/17 03:03:00;;;;;;;35.03;31.50;;;16.30;99.90;;;;;;5065591;28;20049;-57
2023/09/17 03:05:26;;;;;;;36.63;32.72;;;16.30;99.90;;;;;;5047964;28;20048;-54
2023/09/17 03:07:53;;;;;;;33.03;29.48;;;16.30;99.90;;;;;;5061667;28;20036;-56
2023/09/17 03:10:20;;;;;;;30.63;27.48;;;16.30;99.90;;;;;;5046950;28;20036;-56
2023/09/17 03:12:46;;;;;;;37.15;33.20;;;16.30;99.90;;;;;;5063040;28;20095;-55
2023/09/17 03:15:13;;;;;;;38.13;33.92;;;16.30;99.90;;;;;;5060970;28;20572;-56
2023/09/17 03:17:44;;;;;;;32.45;29.15;;;16.40;99.90;;;;;;5062470;28;20036;-56
2023/09/17 03:20:33;;;;;;;36.67;33.13;;;16.40;99.90;;;;;;5060776;28;20133;-56
2023/09/17 03:23:02;;;;;;;28.65;25.67;;;16.40;99.90;;;;;;5063352;28;20063;-53
2023/09/17 03:25:29;;;;;;;32.00;28.80;;;16.40;99.90;;;;;;5063656;28;20052;-56
2023/09/17 03:27:55;;;;;;;37.28;33.30;;;16.50;99.90;;;;;;5064311;28;20495;-56
2023/09/17 03:30:21;;;;;;;27.27;24.63;;;16.50;99.90;;;;;;5065292;28;20044;-56
2023/09/17 03:32:47;;;;;;;34.22;30.73;;;16.50;99.90;;;;;;5047076;28;20036;-55
2023/09/17 03:35:13;;;;;;;31.52;28.33;;;16.50;99.90;;;;;;5063211;28;20563;-53
2023/09/17 03:37:39;;;;;;;31.25;28.15;;;16.50;99.90;;;;;;5047113;28;20635;-56
2023/09/17 03:40:10;;;;;;;29.08;26.15;;;16.50;99.90;;;;;;5062587;28;20055;-56
2023/09/17 03:42:37;;;;;;;31.95;28.85;;;16.50;99.90;;;;;;5048492;28;20036;-55
2023/09/17 03:45:09;;;;;;;26.33;23.75;;;16.50;99.90;;;;;;5063943;28;20044;-56
2023/09/17 03:47:43;;;;;;;28.02;25.00;;;16.60;99.90;;;;;;5047703;28;20730;-53
2023/09/17 03:50:11;;;;;;;25.67;23.10;;;16.50;99.90;;;;;;5044462;28;20163;-58
2023/09/17 03:52:42;;;;;;;25.33;22.77;;;16.50;99.90;;;;;;5064420;28;20654;-56
2023/09/17 03:55:08;;;;;;;31.00;27.88;;;16.60;99.90;;;;;;5063905;28;20051;-55
2023/09/17 03:57:36;;;;;;;24.67;22.27;;;16.60;99.90;;;;;;5047334;28;20040;-57
2023/09/17 04:00:06;;;;;;;30.50;27.45;;;16.70;99.90;;;;;;5065906;28;20116;-58
2023/09/17 04:02:37;;;;;;;29.88;26.88;;;16.60;99.90;;;;;;5060998;28;20076;-55
2023/09/17 04:05:10;;;;;;;30.38;27.17;;;16.60;99.90;;;;;;5054410;28;20051;-57
2023/09/17 04:07:36;;;;;;;33.80;30.30;;;16.60;99.90;;;;;;5060227;28;20468;-58
2023/09/17 04:10:05;;;;;;;34.33;29.15;;;16.60;99.90;;;;;;5064576;28;20101;-55
2023/09/17 04:12:35;;;;;;;35.67;32.13;;;16.60;99.90;;;;;;5061980;28;20055;-56
2023/09/17 04:15:09;;;;;;;33.20;29.83;;;16.60;99.90;;;;;;5064644;28;20051;-55
2023/09/17 04:17:35;;;;;;;37.15;33.17;;;16.60;99.90;;;;;;5058450;28;20032;-56
2023/09/17 04:20:00;;;;;;;28.73;25.73;;;16.60;99.90;;;;;;5061764;28;20093;-55
2023/09/17 04:22:26;;;;;;;28.90;25.83;;;16.60;99.90;;;;;;5060204;28;20056;-54
2023/09/17 04:24:52;;;;;;;34.85;30.92;;;16.60;99.90;;;;;;5059265;28;20127;-56
2023/09/17 04:27:18;;;;;;;32.30;28.67;;;16.60;99.90;;;;;;5046818;28;20032;-56
2023/09/17 04:29:43;;;;;;;38.15;33.13;;;16.60;99.90;;;;;;5063039;28;20087;-56
2023/09/17 04:32:09;;;;;;;35.65;31.80;;;16.60;99.90;;;;;;5044944;28;20056;-55
2023/09/17 04:34:35;;;;;;;31.58;28.45;;;16.60;99.90;;;;;;5064379;28;20527;-54
2023/09/17 04:37:01;;;;;;;31.73;28.50;;;16.60;99.90;;;;;;5062540;28;20044;-55
2023/09/17 04:39:27;;;;;;;32.22;28.92;;;16.60;99.90;;;;;;5046587;28;20041;-56
2023/09/17 04:41:53;;;;;;;35.47;31.88;;;16.60;99.90;;;;;;5062758;28;20139;-56
2023/09/17 04:44:19;;;;;;;28.92;25.83;;;16.60;99.90;;;;;;5064570;28;20468;-55
2023/09/17 04:46:45;;;;;;;35.80;32.13;;;16.60;99.90;;;;;;5062571;28;20039;-52
2023/09/17 04:49:11;;;;;;;30.67;27.50;;;16.60;99.90;;;;;;5065210;28;20050;-57
2023/09/17 04:51:37;;;;;;;32.92;29.77;;;16.60;99.90;;;;;;5062375;28;20051;-56
2023/09/17 04:54:04;;;;;;;33.45;29.95;;;16.60;99.90;;;;;;5047171;28;20510;-56
2023/09/17 04:56:31;;;;;;;33.25;29.73;;;16.60;99.90;;;;;;5064384;28;20032;-57
2023/09/17 04:59:00;;;;;;;30.60;27.45;;;16.60;99.90;;;;;;5062588;28;20036;-56
2023/09/17 05:01:27;;;;;;;32.17;28.92;;;16.60;99.90;;;;;;5066187;28;20524;-56
2023/09/17 05:03:53;;;;;;;30.02;26.92;;;16.60;99.90;;;;;;5065602;28;20058;-56
2023/09/17 05:06:19;;;;;;;33.58;30.05;;;16.70;99.90;;;;;;5067462;28;20060;-55
2023/09/17 05:08:45;;;;;;;37.08;33.17;;;16.70;99.90;;;;;;5065314;28;20064;-56
2023/09/17 05:11:11;;;;;;;36.80;33.10;;;16.60;99.90;;;;;;5064001;28;20788;-55
2023/09/17 05:13:36;;;;;;;31.90;28.55;;;16.70;99.90;;;;;;5064933;28;20036;-56
2023/09/17 05:16:03;;;;;;;36.47;32.85;;;16.60;99.90;;;;;;5066052;28;20099;-55
2023/09/17 05:18:29;;;;;;;28.60;25.75;;;16.60;99.90;;;;;;5065092;28;20112;-56
2023/09/17 05:20:55;;;;;;;33.92;30.52;;;16.70;99.90;;;;;;5064968;28;20663;-56
2023/09/17 05:23:24;;;;;;;31.63;28.30;;;16.60;99.90;;;;;;5065397;28;20045;-55
2023/09/17 05:25:50;;;;;;;35.60;31.90;;;16.70;99.90;;;;;;5067833;28;20123;-55
2023/09/17 05:28:16;;;;;;;36.97;33.30;;;16.70;99.90;;;;;;5065497;28;20127;-56
2023/09/17 05:30:42;;;;;;;29.40;26.55;;;16.70;99.90;;;;;;5048270;28;20051;-53
2023/09/17 05:33:08;;;;;;;31.63;28.48;;;16.70;99.90;;;;;;5064569;28;20048;-55
2023/09/17 05:35:36;;;;;;;33.05;29.70;;;16.70;99.90;;;;;;5065665;28;20119;-57
2023/09/17 05:38:03;;;;;;;33.42;29.98;;;16.70;99.90;;;;;;5061025;28;20028;-56
2023/09/17 05:40:29;;;;;;;30.17;27.25;;;16.70;99.90;;;;;;5064028;28;20113;-57
2023/09/17 05:42:56;;;;;;;31.33;28.02;;;16.70;99.90;;;;;;5049500;28;20048;-56
2023/09/17 05:45:23;;;;;;;35.22;30.27;;;16.70;99.90;;;;;;5068144;28;20036;-56
2023/09/17 05:47:49;;;;;;;35.88;31.60;;;16.70;99.90;;;;;;5064092;28;20048;-58
2023/09/17 05:50:15;;;;;;;30.33;27.33;;;16.70;99.90;;;;;;5047461;28;20113;-56
2023/09/17 05:52:41;;;;;;;29.55;26.48;;;16.70;99.90;;;;;;5065493;28;20034;-56
2023/09/17 05:55:07;;;;;;;35.63;31.83;;;16.70;99.90;;;;;;5065634;28;20515;-55
2023/09/17 05:57:33;;;;;;;32.45;29.25;;;16.70;99.90;;;;;;5064565;28;20399;-56
2023/09/17 05:59:59;;;;;;;37.17;33.20;;;16.70;99.90;;;;;;5068405;28;20049;-56
2023/09/17 06:02:25;;;;;;;33.45;29.95;;;16.80;99.90;;;;;;5060778;28;20101;-55
2023/09/17 06:04:53;;;;;;;38.50;34.58;;;16.70;99.90;;;;;;5066341;28;20033;-56
2023/09/17 06:07:20;;;;;;;38.53;34.60;;;16.80;99.90;;;;;;5064408;28;20151;-54
2023/09/17 06:09:46;;;;;;;34.67;31.05;;;16.80;99.90;;;;;;5062720;28;20434;-55
2023/09/17 06:12:12;;;;;;;36.63;33.00;;;16.80;99.90;;;;;;5044710;28;20042;-57
2023/09/17 06:14:38;;;;;;;39.10;35.15;;;16.80;99.90;;;;;;5063494;28;20048;-56
2023/09/17 06:17:04;;;;;;;36.22;32.45;;;16.90;99.90;;;;;;5065755;28;20075;-56
2023/09/17 06:19:32;;;;;;;37.90;33.90;;;16.80;99.90;;;;;;5062823;28;20071;-55
2023/09/17 06:22:01;;;;;;;35.00;31.25;;;16.90;99.90;;;;;;5066034;28;20053;-55
2023/09/17 06:24:27;;;;;;;36.28;32.47;;;16.90;99.90;;;;;;5069159;28;20495;-56
2023/09/17 06:26:52;;;;;;;33.97;30.27;;;16.90;99.90;;;;;;5047431;28;20080;-55
2023/09/17 06:29:18;;;;;;;36.90;33.20;;;17.00;99.90;;;;;;5063923;28;20044;-56
2023/09/17 06:31:45;;;;;;;35.08;31.38;;;17.00;99.90;;;;;;5065729;28;20040;-55
2023/09/17 06:34:11;;;;;;;33.15;29.73;;;17.00;99.90;;;;;;5065551;28;20121;-57
2023/09/17 06:36:38;;;;;;;34.17;30.35;;;17.00;99.90;;;;;;5064602;28;20033;-55
2023/09/17 06:39:05;;;;;;;35.25;31.70;;;17.10;99.90;;;;;;5060948;28;20039;-55
2023/09/17 06:41:32;;;;;;;33.72;30.23;;;17.10;99.90;;;;;;5064216;28;20630;-56
2023/09/17 06:43:58;;;;;;;32.80;29.45;;;17.20;99.90;;;;;;5060428;28;20074;-58
2023/09/17 06:46:25;;;;;;;32.05;28.88;;;17.20;99.90;;;;;;5045123;28;20052;-56
2023/09/17 06:48:52;;;;;;;33.95;30.27;;;17.20;99.90;;;;;;5065436;28;20080;-58
2023/09/17 06:51:18;;;;;;;32.78;29.35;;;17.20;99.90;;;;;;5066080;28;20052;-54
2023/09/17 06:53:44;;;;;;;32.13;28.60;;;17.30;99.90;;;;;;5064679;28;20090;-55
2023/09/17 06:56:12;;;;;;;33.45;29.95;;;17.40;99.90;;;;;;5064410;28;20036;-55
2023/09/17 06:58:38;;;;;;;34.60;30.90;;;17.30;99.90;;;;;;5062641;28;20094;-56
2023/09/17 07:01:05;;;;;;;33.97;30.48;;;17.40;99.90;;;;;;5049457;28;20044;-56
2023/09/17 07:03:31;;;;;;;35.47;30.20;;;17.40;99.90;;;;;;5064270;28;20048;-55
2023/09/17 07:05:56;;;;;;;35.72;30.90;;;17.50;99.90;;;;;;5064483;28;20048;-53
2023/09/17 07:08:22;;;;;;;31.92;28.52;;;17.50;99.90;;;;;;5061607;28;20036;-56
2023/09/17 07:10:48;;;;;;;30.73;27.50;;;17.50;99.90;;;;;;5047768;28;20047;-56
2023/09/17 07:13:14;;;;;;;31.15;27.70;;;17.50;99.90;;;;;;5057599;28;20037;-56
2023/09/17 07:15:39;;;;;;;32.20;28.88;;;17.60;99.90;;;;;;5043913;28;20064;-57
2023/09/17 07:18:10;;;;;;;33.03;29.50;;;17.50;99.90;;;;;;5061893;28;20044;-56
2023/09/17 07:20:36;;;;;;;29.23;26.08;;;17.60;99.90;;;;;;5065114;28;20080;-57
2023/09/17 07:23:02;;;;;;;32.55;29.15;;;17.60;99.90;;;;;;5065156;28;20571;-54
2023/09/17 07:25:28;;;;;;;31.95;28.60;;;17.60;99.90;;;;;;5064928;28;20148;-55
2023/09/17 07:27:54;;;;;;;31.05;27.58;;;17.70;99.90;;;;;;5064285;28;20055;-57
2023/09/17 07:30:20;;;;;;;31.42;28.15;;;17.70;99.90;;;;;;5061314;28;20120;-56
2023/09/17 07:32:45;;;;;;;31.65;28.30;;;17.70;99.90;;;;;;5062381;28;20484;-54
2023/09/17 07:35:11;;;;;;;34.63;30.92;;;17.70;99.90;;;;;;5061948;28;20040;-55
2023/09/17 07:37:37;;;;;;;30.80;27.60;;;17.70;99.90;;;;;;5062011;28;20420;-53
2023/09/17 07:40:04;;;;;;;36.50;32.42;;;17.80;99.90;;;;;;5061999;28;20127;-57
2023/09/17 07:42:31;;;;;;;34.22;30.65;;;17.80;99.90;;;;;;5061138;28;20048;-55
2023/09/17 07:44:56;;;;;;;36.60;32.75;;;17.80;99.90;;;;;;5064339;28;20113;-56
2023/09/17 07:47:22;;;;;;;37.60;32.78;;;17.90;99.90;;;;;;5059486;28;20687;-56
2023/09/17 07:49:48;;;;;;;32.95;29.35;;;17.90;99.90;;;;;;5064065;28;20132;-54
2023/09/17 07:52:14;;;;;;;33.15;29.70;;;17.90;99.90;;;;;;5050510;28;20032;-55
2023/09/17 07:54:41;;;;;;;36.55;32.83;;;17.90;99.90;;;;;;5063752;28;20044;-55
2023/09/17 07:57:14;;;;;;;37.00;32.78;;;17.90;99.90;;;;;;5062686;28;20108;-56
2023/09/17 07:59:40;;;;;;;34.22;30.60;;;17.90;99.90;;;;;;5032950;28;20113;-56
2023/09/17 08:02:07;;;;;;;37.85;33.92;;;17.90;99.90;;;;;;5063411;28;20512;-56
2023/09/17 08:04:32;;;;;;;36.08;30.80;;;17.90;99.90;;;;;;5048048;28;20083;-55
2023/09/17 08:06:59;;;;;;;34.65;30.60;;;17.90;99.90;;;;;;5059838;28;20058;-56
2023/09/17 08:09:25;;;;;;;36.28;32.47;;;17.90;99.90;;;;;;5062695;28;20044;-56
2023/09/17 08:11:52;;;;;;;34.65;31.05;;;17.90;99.90;;;;;;5046466;28;20040;-55
2023/09/17 08:14:18;;;;;;;34.03;30.58;;;17.90;99.90;;;;;;5061979;28;20047;-56
2023/09/17 08:16:43;;;;;;;37.25;33.45;;;17.90;99.90;;;;;;5063028;28;20400;-55
2023/09/17 08:19:10;;;;;;;36.40;32.40;;;17.90;99.90;;;;;;5058520;28;20148;-55
2023/09/17 08:21:35;;;;;;;33.45;30.05;;;17.90;99.90;;;;;;5063492;28;20492;-55
2023/09/17 08:24:01;;;;;;;35.40;31.75;;;17.90;99.90;;;;;;5062554;28;20111;-58
2023/09/17 08:26:30;;;;;;;39.72;35.47;;;17.90;99.90;;;;;;5060334;28;20044;-56
2023/09/17 08:28:56;;;;;;;33.72;30.25;;;17.90;99.90;;;;;;5062073;28;20098;-55
2023/09/17 08:31:25;;;;;;;35.00;31.27;;;17.90;99.90;;;;;;5059757;28;20045;-56
2023/09/17 08:33:52;;;;;;;38.05;34.17;;;17.90;99.90;;;;;;5060033;28;20037;-56
2023/09/17 08:36:22;;;;;;;41.45;37.10;;;17.90;99.90;;;;;;5055960;28;20446;-56
2023/09/17 08:38:52;;;;;;;36.47;32.67;;;18.00;99.90;;;;;;5061579;28;20556;-55
2023/09/17 08:41:18;;;;;;;41.80;37.38;;;17.90;99.90;;;;;;5046471;28;20426;-57
2023/09/17 08:43:45;;;;;;;39.35;35.30;;;17.90;99.90;;;;;;5062786;28;20040;-55
2023/09/17 08:46:12;;;;;;;41.05;36.85;;;17.90;99.90;;;;;;5062607;28;20260;-57
2023/09/17 08:48:38;;;;;;;36.65;32.70;;;17.90;99.90;;;;;;5059324;28;20092;-57
2023/09/17 08:51:06;;;;;;;37.97;34.03;;;18.00;99.90;;;;;;5062245;28;20519;-58
2023/09/17 08:53:39;;;;;;;39.45;35.38;;;17.90;99.90;;;;;;5060807;28;20024;-56
2023/09/17 08:56:06;;;;;;;41.15;35.67;;;17.90;99.90;;;;;;5064228;28;20043;-57
2023/09/17 08:58:38;;;;;;;36.08;32.15;;;17.90;99.90;;;;;;5063459;28;20047;-55
2023/09/17 09:01:07;;;;;;;40.60;35.95;;;17.90;99.90;;;;;;5069689;28;20120;-56
2023/09/17 09:03:35;;;;;;;40.67;36.35;;;17.90;99.90;;;;;;5047766;28;20605;-57
2023/09/17 09:06:03;;;;;;;37.33;33.33;;;17.90;99.90;;;;;;5060925;28;20056;-57
2023/09/17 09:08:31;;;;;;;41.13;35.13;;;17.90;99.90;;;;;;5062280;28;20051;-56
2023/09/17 09:10:57;;;;;;;42.83;38.25;;;17.90;99.90;;;;;;5048724;28;20040;-55
2023/09/17 09:13:24;;;;;;;39.97;35.05;;;17.90;99.90;;;;;;5044265;28;20040;-54
2023/09/17 09:15:50;;;;;;;42.40;37.53;;;17.90;99.90;;;;;;5062767;28;20044;-57
2023/09/17 09:18:16;;;;;;;38.63;32.75;;;17.90;99.90;;;;;;5025616;28;20048;-57
2023/09/17 09:20:42;;;;;;;39.25;35.00;;;17.90;99.90;;;;;;5049923;28;20067;-56
2023/09/17 09:23:08;;;;;;;41.15;36.80;;;17.90;99.90;;;;;;5049354;28;20146;-55
2023/09/17 09:25:34;;;;;;;40.60;36.30;;;17.90;99.90;;;;;;5061581;28;20078;-57
2023/09/17 09:28:04;;;;;;;37.88;33.75;;;17.80;99.90;;;;;;5065910;28;20036;-56
2023/09/17 09:30:29;;;;;;;36.88;32.40;;;17.80;99.90;;;;;;5060476;28;20602;-56
2023/09/17 09:32:56;;;;;;;38.40;34.13;;;17.80;99.90;;;;;;5060523;28;20119;-58
2023/09/17 09:35:23;;;;;;;37.38;33.45;;;17.80;99.90;;;;;;5062648;28;20036;-56
2023/09/17 09:37:53;;;;;;;33.83;29.83;;;17.70;99.90;;;;;;5067369;28;20127;-59
2023/09/17 09:40:19;;;;;;;42.20;35.05;;;17.80;99.90;;;;;;5067236;28;20093;-56
2023/09/17 09:42:46;;;;;;;35.20;31.42;;;17.70;99.90;;;;;;5049333;28;20545;-56
2023/09/17 09:45:16;;;;;;;39.90;34.08;;;17.80;99.90;;;;;;5066657;28;20036;-57
2023/09/17 09:47:52;;;;;;;37.35;31.38;;;17.80;99.90;;;;;;5065477;28;20468;-58
2023/09/17 09:50:28;;;;;;;38.10;34.20;;;17.80;99.90;;;;;;5063299;28;20298;-57
2023/09/17 09:52:54;;;;;;;36.95;32.72;;;17.70;99.90;;;;;;5065230;28;20037;-54
2023/09/17 09:55:25;;;;;;;35.65;31.77;;;17.80;99.90;;;;;;5048768;28;20415;-57
2023/09/17 09:57:54;;;;;;;39.15;35.00;;;17.70;99.90;;;;;;5065036;28;20060;-56
2023/09/17 10:00:26;;;;;;;38.10;34.00;;;17.70;99.90;;;;;;5065417;28;20465;-58
2023/09/17 10:02:53;;;;;;;37.38;33.55;;;17.70;99.90;;;;;;5064331;28;20045;-56
2023/09/17 10:05:37;;;;;;;38.78;34.28;;;17.70;99.90;;;;;;5032770;28;20450;-57
2023/09/17 10:08:04;;;;;;;36.58;32.80;;;17.70;99.90;;;;;;5043685;28;20108;-57
2023/09/17 10:10:30;;;;;;;33.25;29.42;;;17.70;99.90;;;;;;5062922;28;20044;-56
2023/09/17 10:12:56;;;;;;;33.97;28.88;;;17.70;99.90;;;;;;5047138;28;20056;-57
2023/09/17 10:15:22;;;;;;;34.80;31.10;;;17.70;99.90;;;;;;5045965;28;20044;-57
2023/09/17 10:17:49;;;;;;;35.42;31.65;;;17.60;99.90;;;;;;5064721;28;20044;-55
2023/09/17 10:20:15;;;;;;;28.60;25.33;;;17.60;99.90;;;;;;5063602;28;20044;-55
2023/09/17 10:22:42;;;;;;;36.15;31.88;;;17.60;99.90;;;;;;5064357;28;20052;-57
2023/09/17 10:25:10;;;;;;;34.15;29.45;;;17.60;99.90;;;;;;5062364;28;20051;-58
2023/09/17 10:27:40;;;;;;;35.05;30.13;;;17.70;99.90;;;;;;5065809;28;20612;-56
2023/09/17 10:30:07;;;;;;;33.28;29.67;;;17.70;99.90;;;;;;5062880;28;20124;-58
2023/09/17 10:32:34;;;;;;;30.10;26.98;;;17.70;99.90;;;;;;5048266;28;20274;-57
2023/09/17 10:35:02;;;;;;;30.17;27.10;;;17.70;99.90;;;;;;5046224;28;20133;-56
2023/09/17 10:37:31;;;;;;;31.15;27.95;;;17.70;99.90;;;;;;5065802;28;20044;-57
2023/09/17 10:39:58;;;;;;;28.00;24.30;;;17.70;99.90;;;;;;5063641;28;20052;-58
2023/09/17 10:42:25;;;;;;;26.10;23.30;;;17.70;99.90;;;;;;5066720;28;20689;-58
2023/09/17 10:44:55;;;;;;;25.67;23.00;;;17.80;99.90;;;;;;5064133;28;20047;-56
2023/09/17 10:47:23;;;;;;;23.83;21.35;;;17.80;99.90;;;;;;5065190;28;20052;-56
2023/09/17 10:49:49;;;;;;;20.40;18.10;;;17.70;99.90;;;;;;5064179;28;20043;-56
2023/09/17 10:52:15;;;;;;;22.15;19.85;;;17.70;99.90;;;;;;5062431;28;20051;-57
2023/09/17 10:54:41;;;;;;;22.92;20.52;;;17.70;99.90;;;;;;5044654;28;20098;-56
2023/09/17 10:57:12;;;;;;;20.65;18.50;;;17.70;99.90;;;;;;5062633;28;20040;-57
2023/09/17 10:59:38;;;;;;;21.58;19.30;;;17.70;99.90;;;;;;5060775;28;20102;-56
2023/09/17 11:02:07;;;;;;;17.85;16.15;;;17.80;99.90;;;;;;5066764;28;20107;-60
2023/09/17 11:04:33;;;;;;;19.00;16.98;;;17.80;99.90;;;;;;5064784;28;20446;-56
2023/09/17 11:07:00;;;;;;;19.58;17.75;;;17.80;99.90;;;;;;5064303;28;20045;-56
2023/09/17 11:09:26;;;;;;;19.73;17.67;;;17.80;99.90;;;;;;5059144;28;20045;-56
2023/09/17 11:11:52;;;;;;;18.67;16.65;;;17.90;99.90;;;;;;5048955;28;20040;-55
2023/09/17 11:14:18;;;;;;;19.20;17.30;;;17.90;99.90;;;;;;5063862;28;20103;-55
2023/09/17 11:16:48;;;;;;;15.63;14.07;;;17.90;99.90;;;;;;5061123;28;20061;-58
2023/09/17 11:19:21;;;;;;;16.77;15.10;;;17.90;99.90;;;;;;5056712;28;20039;-57
2023/09/17 11:21:49;;;;;;;20.08;17.88;;;18.00;99.90;;;;;;5043108;28;20038;-57
2023/09/17 11:24:17;;;;;;;19.63;17.63;;;18.00;99.90;;;;;;5064513;28;20139;-56
2023/09/17 11:26:47;;;;;;;19.85;17.83;;;18.00;99.90;;;;;;5063748;28;20094;-57
2023/09/17 11:29:14;;;;;;;18.55;16.63;;;18.00;99.90;;;;;;5063505;28;20051;-58
2023/09/17 11:31:52;;;;;;;20.42;18.48;;;18.00;99.90;;;;;;5063530;28;20108;-57
2023/09/17 11:34:18;;;;;;;21.17;18.98;;;18.00;99.90;;;;;;5049467;28;20642;-56
2023/09/17 11:36:47;;;;;;;23.80;21.45;;;18.00;99.90;;;;;;5062235;28;20488;-57
2023/09/17 11:39:20;;;;;;;20.08;17.95;;;18.00;99.90;;;;;;5063200;28;20049;-57
2023/09/17 11:41:50;;;;;;;25.13;22.48;;;18.00;99.90;;;;;;5058172;28;20048;-57
2023/09/17 11:44:17;;;;;;;22.02;19.83;;;18.00;99.90;;;;;;5064057;28;20124;-56
2023/09/17 11:46:44;;;;;;;20.40;18.48;;;18.10;99.90;;;;;;5063382;28;20044;-55
2023/09/17 11:49:10;;;;;;;25.90;23.25;;;18.10;99.90;;;;;;5057393;28;20123;-58
2023/09/17 11:51:43;;;;;;;27.73;24.50;;;18.10;99.90;;;;;;5064162;28;20085;-57
2023/09/17 11:54:23;;;;;;;25.60;23.07;;;18.20;99.90;;;;;;5047109;28;20408;-56
2023/09/17 11:56:55;;;;;;;24.73;22.33;;;18.20;99.90;;;;;;5046962;28;20040;-57
2023/09/17 11:59:21;;;;;;;29.52;26.83;;;18.20;99.90;;;;;;5062416;28;20123;-56
2023/09/17 12:01:53;;;;;;;29.15;26.27;;;18.30;99.90;;;;;;5066086;28;20040;-57
2023/09/17 12:04:22;;;;;;;30.20;27.05;;;18.30;99.90;;;;;;5059503;28;20500;-57
2023/09/17 12:06:50;;;;;;;27.08;24.27;;;18.40;99.90;;;;;;5062927;28;20040;-56
2023/09/17 12:11:56;;;;;;;26.75;24.17;;;18.60;99.90;;;;;;5059736;28;20056;-56
2023/09/17 12:14:22;;;;;;;30.00;26.95;;;18.60;99.90;;;;;;5061564;28;20059;-58
2023/09/17 12:16:49;;;;;;;27.70;24.90;;;18.60;99.90;;;;;;5064044;28;20052;-56
2023/09/17 12:19:17;;;;;;;29.40;26.25;;;18.60;99.90;;;;;;5061643;28;20080;-57
2023/09/17 12:21:44;;;;;;;28.25;25.45;;;18.60;99.90;;;;;;5063938;28;20083;-56
2023/09/17 12:24:28;;;;;;;31.25;28.15;;;18.60;99.90;;;;;;5061379;28;20125;-56
2023/09/17 12:27:22;;;;;;;28.75;26.02;;;18.60;99.90;;;;;;5063118;28;20045;-59
2023/09/17 12:29:48;;;;;;;28.20;25.40;;;18.60;99.90;;;;;;5059200;28;20123;-57
2023/09/17 12:32:25;;;;;;;30.73;27.55;;;18.60;99.90;;;;;;5060977;28;20118;-57